Terminal Aerodrome Forecast
Issued by NWS Greer, SC

Home | Current Version | Previous Version | Text Only | Print | Product List | Glossary On
Versions: 1 2 3 4 5 6 7 8 9 10 11 12 13 14 15 16 17 18 19 20 21 22 23 24 25
000
FTUS42 KGSP 312330
TAFCLT
TAF
KCLT 312330Z 0100/0124 32009KT P6SM -TSRA BKN060CB OVC090
      TEMPO 0100/0101 6SM -SHRA BKN060 BKN200
     FM010100 06003KT P6SM BKN070 BKN200
     FM011500 03004KT P6SM BKN050
     FM012100 12003KT P6SM BKN050 PROB30 0121/0124 4SM -TSRA
      OVC050CB=

USA.gov is the U.S. government's official web portal to all federal, state and local government web resources and services.